AirNav   Duncan Aviation - Near you to keep you flying
 
 1432 users online  

FL29 Hales 700 Airport
Fort Pierce, Florida, USA

GOING TO FORT PIERCE?


FAA INFORMATION EFFECTIVE 30 DECEMBER 2021

Location

FAA Identifier: FL29
Lat/Long: 27-21-40.1510N 080-34-15.1990W
27-21.669183N 080-34.253317W
27.3611531,-80.5708886
(estimated)
Elevation: 26 ft. / 8 m (estimated)
Variation: 03W (1985)
From city: 15 miles SW of FORT PIERCE, FL
Time zone: UTC -5 (UTC -4 during Daylight Saving Time)
Zip code: 34945

Airport Operations

Airport use: Private use. Permission required prior to landing
Activation date: 08/1991
Control tower: no
ARTCC: MIAMI CENTER
FSS: MIAMI FLIGHT SERVICE STATION
Attendance: UNATNDD
Wind indicator: yes
Segmented circle: no

Airport Communications

WX ASOS at FPR (13 nm NE): PHONE 772-489-4281
WX AWOS-3 at OBE (16 nm W): 118.675 (863-467-1148)
WX ASOS at VRB (19 nm NE): 120.575 (772-978-9535)

Nearby radio navigation aids

VOR radial/distance  VOR name  Freq  Var
TRVr200/19.5TREASURE VORTAC117.3007W
PHKr011/35.3PAHOKEE VOR/DME115.4000E

 
NDB name  Hdg/Dist  Freq  Var  ID
FORT PIERCE241/12.927507WFPR ..-. .--. .-.
UNITED340/29.940505WUTX ..- - -..-

Airport Services

Runway Information

Runway 9/27

Dimensions: 4000 x 40 ft. / 1219 x 12 m
Surface: turf
RUNWAY 9  RUNWAY 27
Traffic pattern: leftleft

Airport Ownership and Management from official FAA records

Ownership: Privately-owned
Owner: EVANS PROPERTIES INC
P O BOX 1137
DADE CITY, FL 33526-1137
Phone 904-567-5661
Manager: J T FALLIN
P O BOX 1137
DADE CITY, FL 33526-1137
Phone 904-567-5661

Additional Remarks

FOR CD CTC PALM BEACH APCH AT 561-275-1430

Instrument Procedures

There are no published instrument procedures at FL29.

Some nearby airports with instrument procedures:

KFPR - Treasure Coast International Airport (13 nm NE)
KOBE - Okeechobee County Airport (16 nm W)
KVRB - Vero Beach Regional Airport (19 nm NE)
KSUA - Witham Field Airport (22 nm SE)
X26 - Sebastian Municipal Airport (27 nm N)
 
Loc | Ops | Rwys | IFR | FBO | Links
Com | Nav | Svcs | Stats | Notes

Reliance Aviation
AirBoss

 
Area around FL29 (Hales 700 Airport)
 
Road maps at: MapQuest Bing Google
 
Aerial photo
No photo
 
Sectional chart

 
Airport distance calculator
Flying to Hales 700 Airport? Find the distance to fly.

From to FL29

Sunrise and sunset
Times for 19-Jan-2022
 Local
(UTC-5)
 Zulu
(UTC)
Morning civil twilight06:4911:49
Sunrise07:1412:14
Sunset17:5222:52
Evening civil twilight18:1723:17

Current date and time
Zulu (UTC)  19-Jan-2022 17:55:49
Local (UTC-5)  19-Jan-2022 12:55:49
 
METAR
KFPR 
13nm NE 
191653Z AUTO A3023 RMK AO2 SLP238 PWINO $
KOBE 
16nm W 
191735Z AUTO VRB05G12KT 10SM FEW046 23/13 A3020 RMK AO2
KVRB 
19nm NE 
191653Z 12010KT 10SM FEW048 23/12 A3023 RMK AO2 SLP236 T02280117
KSUA 
22nm SE 
191648Z 11008G16KT 10SM BKN045 22/10 A3024
TAF
KFPR 
13nm NE 
191122Z 1912/2012 28003KT P6SM SKC FM191600 13010KT P6SM SCT035 FM200000 14003KT P6SM FEW050 SCT250 FM200600 VRB04KT P6SM SKC
KVRB 
19nm NE 
191122Z 1912/2012 32005KT P6SM SKC FM191600 11009KT P6SM SCT035 FM200000 15004KT P6SM FEW050 SCT250 FM200600 VRB04KT P6SM SKC
NOTAMs
Click for the latest NOTAMs
NOTAMs are issued by the DoD/FAA and will open in a separate window not controlled by AirNav.

 

 
 

Would you like to see your business listed on this page?

 If your business provides an interesting product or service to pilots, flight crews, aircraft, or users of the Hales 700 Airport, you should consider listing it here.  To start the listing process, click on the button below
 
Add a business
 

Other Pages about Hales 700 Airport

Update a link
 
Copyright © AirNav, LLC. All rights reserved. Privacy Policy  Contact